Time;durP1;ratioP1;P1;durP2;ratioP2;P2;SDS_P1;SDS_P2;PMS_P1;PMS_P2;Temp;Humidity;BMP_temperature;BMP_pressure;BME280_temperature;BME280_humidity;BME280_pressure;Samples;Min_cycle;Max_cycle;Signal;HPM_P1;HPM_P2
2023/01/18 00:01:47;;;;;;;;;;;;;;;-1.25;100.00;98938.94;4929983;28;19934;-76
2023/01/18 00:04:13;;;;;;;;;;;;;;;-1.25;100.00;98942.34;4924018;28;19930;-76
2023/01/18 00:06:38;;;;;;;;;;;;;;;-1.25;100.00;98946.72;4923859;28;19934;-75
2023/01/18 00:09:03;;;;;;;;;;;;;;;-1.25;100.00;98944.13;4925197;28;19937;-75
2023/01/18 00:11:29;;;;;;;;;;;;;;;-1.27;100.00;98946.75;4924372;28;19946;-75
2023/01/18 00:13:55;;;;;;;;;;;;;;;-1.27;100.00;98944.16;4926774;28;20029;-76
2023/01/18 00:16:21;;;;;;;;;;;;;;;-1.26;100.00;98942.38;4925202;28;22081;-76
2023/01/18 00:18:51;;;;;;;;;;;;;;;-1.26;100.00;98943.25;4907404;28;19946;-76
2023/01/18 00:21:16;;;;;;;;;;;;;;;-1.22;100.00;98946.63;4914073;28;20179;-76
2023/01/18 00:23:42;;;;;;;;;;;;;;;-1.21;100.00;98943.13;4921662;28;20412;-77
2023/01/18 00:26:08;;;;;;;;;;;;;;;-1.21;100.00;98940.53;4928464;28;19923;-76
2023/01/18 00:28:33;;;;;;;;;;;;;;;-1.19;100.00;98953.47;4927107;28;19930;-76
2023/01/18 00:30:59;;;;;;;;;;;;;;;-1.22;100.00;98954.41;4922227;28;21655;-76
2023/01/18 00:33:24;;;;;;;;;;;;;;;-1.23;100.00;98953.56;4906031;28;19984;-76
2023/01/18 00:35:53;;;;;;;;;;;;;;;-1.24;100.00;98951.00;4925176;28;20375;-77
2023/01/18 00:38:19;;;;;;;;;;;;;;;-1.23;100.00;98953.56;4921742;28;19930;-76
2023/01/18 00:40:45;;;;;;;;;;;;;;;-1.24;100.00;98953.59;4925614;28;20645;-76
2023/01/18 00:45:54;;;;;;;;;;;;;;;-1.26;100.00;98944.97;4924060;28;20537;-76
2023/01/18 00:48:19;;;;;;;;;;;;;;;-1.28;100.00;98954.56;4921573;28;19953;-76
2023/01/18 00:50:45;;;;;;;;;;;;;;;-1.31;100.00;98950.31;4925319;28;20025;-76
2023/01/18 00:53:10;;;;;;;;;;;;;;;-1.33;100.00;98962.50;4922350;28;19930;-77
2023/01/18 00:55:36;;;;;;;;;;;;;;;-1.35;100.00;98960.81;4926602;28;20425;-76
2023/01/18 00:58:01;;;;;;;;;;;;;;;-1.35;100.00;98953.91;4906878;28;20088;-76
2023/01/18 01:00:26;;;;;;;;;;;;;;;-1.35;100.00;98958.22;4918612;28;19941;-76
2023/01/18 01:02:52;;;;;;;;;;;;;;;-1.35;100.00;98959.09;4921460;28;20033;-75
2023/01/18 01:08:06;;;;;;;;;;;;;;;-1.36;100.00;98957.41;4920606;28;19934;-76
2023/01/18 01:26:09;;;;;;;;;;;;;;;-1.43;100.00;98961.88;4925923;28;19923;-76
2023/01/18 01:28:35;;;;;;;;;;;;;;;-1.44;100.00;98960.19;4915896;28;19934;-76
2023/01/18 01:31:01;;;;;;;;;;;;;;;-1.43;100.00;98966.22;4911384;28;19970;-76
2023/01/18 01:33:27;;;;;;;;;;;;;;;-1.43;100.00;98972.28;4906755;29;20056;-76
2023/01/18 01:35:53;;;;;;;;;;;;;;;-1.42;100.00;98976.56;4924182;28;20451;-76
2023/01/18 01:38:19;;;;;;;;;;;;;;;-1.40;100.00;98982.59;4923240;28;20317;-76
2023/01/18 01:40:54;;;;;;;;;;;;;;;-1.38;100.00;98980.78;4923975;28;20524;-76
2023/01/18 01:43:35;;;;;;;;;;;;;;;-1.38;100.00;98970.41;4923289;28;20308;-76
2023/01/18 01:46:01;;;;;;;;;;;;;;;-1.36;100.00;98978.16;4920199;28;19930;-76
2023/01/18 01:48:26;;;;;;;;;;;;;;;-1.35;100.00;98984.19;4925262;28;19927;-76
2023/01/18 01:50:51;;;;;;;;;;;;;;;-1.37;100.00;98992.00;4923183;28;20057;-76
2023/01/18 01:53:17;;;;;;;;;;;;;;;-1.38;100.00;98992.91;4920767;28;19927;-76
2023/01/18 01:55:43;;;;;;;;;;;;;;;-1.38;100.00;98998.09;4924738;28;19954;-76
2023/01/18 01:58:19;;;;;;;;;;;;;;;-1.39;100.00;98996.41;4923313;28;19935;-76
2023/01/18 02:00:44;;;;;;;;;;;;;;;-1.37;100.00;98998.06;4919645;28;20073;-76
2023/01/18 02:03:11;;;;;;;;;;;;;;;-1.34;100.00;98991.94;4921581;28;20469;-76
2023/01/18 02:05:41;;;;;;;;;;;;;;;-1.32;100.00;98990.16;4919320;28;20577;-77
2023/01/18 02:08:10;;;;;;;;;;;;;;;-1.28;100.00;98986.59;4922183;28;20249;-76
2023/01/18 02:10:36;;;;;;;;;;;;;;;-1.20;100.00;98988.13;4923428;28;19934;-77
2023/01/18 02:13:02;;;;;;;;;;;;;;;-1.16;100.00;98989.75;4921613;28;19977;-77
2023/01/18 02:15:32;;;;;;;;;;;;;;;-1.16;100.00;98989.75;4921762;28;19985;-77
2023/01/18 02:18:04;;;;;;;;;;;;;;;-1.17;100.00;98990.63;4921835;28;19953;-77
2023/01/18 02:20:50;;;;;;;;;;;;;;;-1.18;100.00;98991.53;4908875;28;19934;-75
2023/01/18 02:23:24;;;;;;;;;;;;;;;-1.20;100.00;98978.59;4921599;28;19945;-77
2023/01/18 02:25:59;;;;;;;;;;;;;;;-1.21;100.00;98984.69;4921894;28;19926;-77
2023/01/18 02:28:32;;;;;;;;;;;;;;;-1.23;100.00;98987.34;4922554;28;19934;-78
2023/01/18 02:31:00;;;;;;;;;;;;;;;-1.24;100.00;98998.59;4922638;28;19931;-77
2023/01/18 02:33:26;;;;;;;;;;;;;;;-1.25;100.00;98999.50;4921144;28;19931;-76
2023/01/18 02:35:54;;;;;;;;;;;;;;;-1.24;100.00;98988.19;4923214;28;19933;-76
2023/01/18 02:38:19;;;;;;;;;;;;;;;-1.23;100.00;98995.13;4922884;28;19986;-76
2023/01/18 02:41:07;;;;;;;;;;;;;;;-1.21;100.00;98991.63;4923192;28;19931;-76
2023/01/18 02:46:29;;;;;;;;;;;;;;;-1.24;100.00;98998.59;4923888;28;19990;-76
2023/01/18 02:49:21;;;;;;;;;;;;;;;-1.25;100.00;98996.91;4920704;28;19930;-76
2023/01/18 02:51:47;;;;;;;;;;;;;;;-1.26;100.00;99002.97;4918136;28;19930;-76
2023/01/18 02:54:22;;;;;;;;;;;;;;;-1.27;100.00;98998.69;4921507;28;20437;-76
2023/01/18 02:56:48;;;;;;;;;;;;;;;-1.27;100.00;99009.06;4921983;28;19935;-77
2023/01/18 02:59:15;;;;;;;;;;;;;;;-1.30;100.00;99003.09;4924829;28;20010;-76
2023/01/18 03:02:01;;;;;;;;;;;;;;;-1.31;100.00;99002.25;4919982;28;19933;-76
2023/01/18 03:04:28;;;;;;;;;;;;;;;-1.31;100.00;99002.25;4923275;28;19931;-76
2023/01/18 03:06:56;;;;;;;;;;;;;;;-1.31;100.00;98997.06;4920134;28;20297;-76
2023/01/18 03:09:24;;;;;;;;;;;;;;;-1.31;100.00;98996.22;4921194;28;19930;-77
2023/01/18 03:11:53;;;;;;;;;;;;;;;-1.31;100.00;99002.25;4923476;28;20386;-76
2023/01/18 03:14:27;;;;;;;;;;;;;;;-1.31;100.00;99002.25;4916738;28;20153;-76
2023/01/18 03:16:58;;;;;;;;;;;;;;;-1.32;100.00;98994.53;4922885;28;19957;-76
2023/01/18 03:23:36;;;;;;;;;;;;;;;-1.34;100.00;98991.09;4922925;28;19953;-76
2023/01/18 03:25:06;;;;;;;;;;;;;;;-1.33;100.00;98990.19;4924277;28;19986;-76
2023/01/18 03:35:44;;;;;;;;;;;;;;;-1.39;100.00;98999.88;4925763;28;19966;-76
2023/01/18 03:38:09;;;;;;;;;;;;;;;-1.37;100.00;98997.22;4926723;28;19940;-76
2023/01/18 03:40:34;;;;;;;;;;;;;;;-1.37;100.00;98992.00;4927137;28;20238;-76
2023/01/18 03:43:03;;;;;;;;;;;;;;;-1.39;100.00;98994.69;4909849;29;19934;-76
2023/01/18 03:45:30;;;;;;;;;;;;;;;-1.39;100.00;98999.00;4928813;28;20104;-76
2023/01/18 03:47:55;;;;;;;;;;;;;;;-1.39;100.00;99006.78;4926254;28;19930;-76
2023/01/18 03:50:29;;;;;;;;;;;;;;;-1.39;100.00;99009.38;4927588;28;20438;-76
2023/01/18 03:52:55;;;;;;;;;;;;;;;-1.40;100.00;99007.69;4909080;28;19937;-76
2023/01/18 03:55:33;;;;;;;;;;;;;;;-1.38;100.00;99005.91;4927212;28;19930;-76
2023/01/18 03:58:00;;;;;;;;;;;;;;;-1.38;100.00;99013.69;4926619;28;20426;-76
2023/01/18 04:00:25;;;;;;;;;;;;;;;-1.38;100.00;99009.34;4926831;28;19927;-76
2023/01/18 04:02:51;;;;;;;;;;;;;;;-1.35;100.00;99000.63;4910885;28;20673;-76
2023/01/18 04:05:16;;;;;;;;;;;;;;;-1.34;100.00;99002.34;4928276;28;20315;-76
2023/01/18 04:07:42;;;;;;;;;;;;;;;-1.33;100.00;99004.03;4923347;28;19930;-76
2023/01/18 04:10:08;;;;;;;;;;;;;;;-1.32;100.00;99010.94;4926597;28;20626;-76
2023/01/18 04:12:36;;;;;;;;;;;;;;;-1.32;100.00;99003.13;4928034;28;20510;-76
2023/01/18 04:15:02;;;;;;;;;;;;;;;-1.29;100.00;99005.69;4929525;28;20554;-76
2023/01/18 04:17:27;;;;;;;;;;;;;;;-1.27;100.00;98998.69;4912532;29;19934;-76
2023/01/18 04:19:53;;;;;;;;;;;;;;;-1.29;100.00;98997.88;4929855;28;19930;-76
2023/01/18 04:22:18;;;;;;;;;;;;;;;-1.28;100.00;98998.72;4924358;28;20483;-76
2023/01/18 04:24:44;;;;;;;;;;;;;;;-1.29;100.00;98995.28;4914008;29;19934;-76
2023/01/18 04:27:09;;;;;;;;;;;;;;;-1.28;100.00;98999.59;4927310;28;19927;-76
2023/01/18 04:29:34;;;;;;;;;;;;;;;-1.28;100.00;98998.72;4924781;28;20402;-76
2023/01/18 04:32:00;;;;;;;;;;;;;;;-1.28;100.00;99002.19;4909958;29;19940;-76
2023/01/18 04:34:25;;;;;;;;;;;;;;;-1.29;100.00;98990.09;4928762;28;19970;-76
2023/01/18 04:36:51;;;;;;;;;;;;;;;-1.31;100.00;98997.06;4908324;29;19930;-77
2023/01/18 04:39:16;;;;;;;;;;;;;;;-1.33;100.00;99006.63;4923009;28;21257;-76
2023/01/18 04:41:42;;;;;;;;;;;;;;;-1.35;100.00;99003.22;4908665;29;19974;-76
2023/01/18 04:44:07;;;;;;;;;;;;;;;-1.36;100.00;99009.31;4928107;28;20449;-75
2023/01/18 04:46:33;;;;;;;;;;;;;;;-1.37;100.00;99007.59;4927059;28;19926;-75
2023/01/18 04:48:58;;;;;;;;;;;;;;;-1.41;100.00;99006.81;4928602;28;19938;-75
2023/01/18 04:51:24;;;;;;;;;;;;;;;-1.43;100.00;99013.81;4925207;28;19922;-76
2023/01/18 04:53:49;;;;;;;;;;;;;;;-1.45;100.00;99006.94;4925391;28;20378;-76
2023/01/18 04:56:15;;;;;;;;;;;;;;;-1.45;100.00;99013.00;4893860;28;20022;-76
2023/01/18 04:58:41;;;;;;;;;;;;;;;-1.44;100.00;99011.25;4923510;28;19931;-76
2023/01/18 05:01:07;;;;;;;;;;;;;;;-1.44;100.00;99014.69;4909651;29;19957;-76
2023/01/18 05:03:37;;;;;;;;;;;;;;;-1.43;100.00;99018.13;4928676;28;19930;-76
2023/01/18 05:06:06;;;;;;;;;;;;;;;-1.43;100.00;99013.81;4924196;28;19930;-76
2023/01/18 05:08:31;;;;;;;;;;;;;;;-1.44;100.00;99016.44;4922869;28;20037;-76
2023/01/18 05:11:04;;;;;;;;;;;;;;;-1.44;100.00;99017.31;4927407;28;20057;-76
2023/01/18 05:13:29;;;;;;;;;;;;;;;-1.42;100.00;99022.47;4926731;28;19930;-76
2023/01/18 05:15:55;;;;;;;;;;;;;;;-1.38;100.00;99031.84;4904954;29;20492;-76
2023/01/18 05:18:21;;;;;;;;;;;;;;;-1.37;100.00;99036.16;4923863;29;19938;-76
2023/01/18 05:20:47;;;;;;;;;;;;;;;-1.36;100.00;99032.69;4908403;29;20563;-76
2023/01/18 05:23:13;;;;;;;;;;;;;;;-1.35;100.00;99034.41;4929051;28;20477;-76
2023/01/18 05:25:38;;;;;;;;;;;;;;;-1.36;100.00;99035.28;4911546;29;19937;-76
2023/01/18 05:28:04;;;;;;;;;;;;;;;-1.34;100.00;99038.69;4911518;29;19930;-76
2023/01/18 05:30:29;;;;;;;;;;;;;;;-1.32;100.00;99041.25;4913963;29;19941;-76
2023/01/18 05:32:55;;;;;;;;;;;;;;;-1.32;100.00;99042.09;4911415;29;20284;-76
2023/01/18 05:35:20;;;;;;;;;;;;;;;-1.30;100.00;99048.09;4913259;29;20042;-76
2023/01/18 05:37:45;;;;;;;;;;;;;;;-1.28;100.00;99051.53;4908668;29;19927;-76
2023/01/18 05:40:11;;;;;;;;;;;;;;;-1.28;100.00;99048.06;4913722;29;19950;-76
2023/01/18 05:42:36;;;;;;;;;;;;;;;-1.26;100.00;99056.66;4925574;28;19966;-77
2023/01/18 05:45:02;;;;;;;;;;;;;;;-1.26;100.00;99057.53;4909884;29;19938;-76
2023/01/18 05:47:27;;;;;;;;;;;;;;;-1.27;100.00;99053.22;4912025;28;20156;-76
2023/01/18 05:49:53;;;;;;;;;;;;;;;-1.27;100.00;99061.00;4912083;29;19930;-77
2023/01/18 05:52:18;;;;;;;;;;;;;;;-1.28;100.00;99056.72;4912452;29;19982;-76
2023/01/18 05:54:44;;;;;;;;;;;;;;;-1.29;100.00;99061.94;4923677;28;19931;-77
2023/01/18 05:57:09;;;;;;;;;;;;;;;-1.31;100.00;99064.56;4909629;28;19937;-76
2023/01/18 05:59:35;;;;;;;;;;;;;;;-1.32;100.00;99067.22;4926589;28;19980;-76
2023/01/18 06:02:02;;;;;;;;;;;;;;;-1.32;100.00;99065.47;4921675;28;19931;-77
2023/01/18 06:04:27;;;;;;;;;;;;;;;-1.33;100.00;99061.16;4927258;28;20762;-76
2023/01/18 06:06:53;;;;;;;;;;;;;;;-1.29;100.00;99061.94;4923054;28;19957;-76
2023/01/18 06:09:19;;;;;;;;;;;;;;;-1.28;100.00;99068.84;4923449;28;20429;-77
2023/01/18 06:11:44;;;;;;;;;;;;;;;-1.26;100.00;99078.28;4924307;28;19927;-76
2023/01/18 06:14:13;;;;;;;;;;;;;;;-1.25;100.00;99079.16;4907855;29;19954;-76
2023/01/18 06:16:38;;;;;;;;;;;;;;;-1.24;100.00;99079.09;4926524;28;19941;-76
2023/01/18 06:19:04;;;;;;;;;;;;;;;-1.21;100.00;99085.97;4924167;28;20147;-76
2023/01/18 06:21:30;;;;;;;;;;;;;;;-1.19;100.00;99088.53;4921786;28;19931;-76
2023/01/18 06:23:55;;;;;;;;;;;;;;;-1.15;100.00;99084.97;4904173;29;19922;-76
2023/01/18 06:26:22;;;;;;;;;;;;;;;-1.14;100.00;99097.06;4926937;28;20513;-76
2023/01/18 06:28:48;;;;;;;;;;;;;;;-1.14;100.00;99090.09;4924009;28;19931;-76
2023/01/18 06:31:13;;;;;;;;;;;;;;;-1.13;100.00;99096.19;4892459;29;20464;-76
2023/01/18 06:33:39;;;;;;;;;;;;;;;-1.12;100.00;99101.34;4924702;28;20639;-76
2023/01/18 06:36:04;;;;;;;;;;;;;;;-1.10;100.00;99109.06;4925097;28;19994;-76
2023/01/18 06:38:30;;;;;;;;;;;;;;;-1.11;100.00;99107.38;4925625;28;20816;-76
2023/01/18 06:40:56;;;;;;;;;;;;;;;-1.12;100.00;99111.72;4925442;28;20477;-77
2023/01/18 06:43:21;;;;;;;;;;;;;;;-1.10;100.00;99117.72;4922081;28;20453;-76
2023/01/18 06:46:08;;;;;;;;;;;;;;;-1.11;100.00;99122.94;4922280;28;19973;-76
2023/01/18 06:48:36;;;;;;;;;;;;;;;-1.12;100.00;99116.94;4915307;28;20650;-77
2023/01/18 06:51:01;;;;;;;;;;;;;;;-1.13;100.00;99114.34;4924771;28;21971;-77
2023/01/18 06:53:27;;;;;;;;;;;;;;;-1.15;100.00;99129.97;4920822;28;19945;-77
2023/01/18 06:55:53;;;;;;;;;;;;;;;-1.15;100.00;99121.34;4904073;28;20193;-76
2023/01/18 06:58:18;;;;;;;;;;;;;;;-1.15;100.00;99123.94;4922459;28;19934;-77
2023/01/18 07:00:44;;;;;;;;;;;;;;;-1.17;100.00;99129.16;4922600;28;20537;-76
2023/01/18 07:03:09;;;;;;;;;;;;;;;-1.16;100.00;99130.00;4923088;28;20121;-77
2023/01/18 07:05:38;;;;;;;;;;;;;;;-1.16;100.00;99137.78;4918409;28;20083;-76
2023/01/18 07:08:04;;;;;;;;;;;;;;;-1.17;100.00;99133.50;4918588;28;19930;-76
2023/01/18 07:10:29;;;;;;;;;;;;;;;-1.18;100.00;99136.97;4922150;28;20140;-76
2023/01/18 07:12:57;;;;;;;;;;;;;;;-1.16;100.00;99146.44;4921032;28;19926;-76
2023/01/18 07:15:22;;;;;;;;;;;;;;;-1.16;100.00;99140.38;4922158;28;20030;-76
2023/01/18 07:17:51;;;;;;;;;;;;;;;-1.14;100.00;99136.88;4919751;28;19966;-74
2023/01/18 07:20:19;;;;;;;;;;;;;;;-1.12;100.00;99139.44;4917577;28;19935;-75
2023/01/18 07:22:44;;;;;;;;;;;;;;;-1.09;100.00;99141.97;4901699;28;19976;-73
2023/01/18 07:25:18;;;;;;;;;;;;;;;-1.09;100.00;99149.75;4923368;28;19937;-73
2023/01/18 07:27:43;;;;;;;;;;;;;;;-1.13;100.00;99148.13;4921484;28;20027;-73
2023/01/18 07:30:11;;;;;;;;;;;;;;;-1.18;100.00;99157.75;4919080;28;19942;-74
2023/01/18 07:32:37;;;;;;;;;;;;;;;-1.27;100.00;99153.63;4896081;28;19981;-74
2023/01/18 07:35:04;;;;;;;;;;;;;;;-1.35;100.00;99156.44;4917022;28;20391;-74
2023/01/18 07:37:29;;;;;;;;;;;;;;;-1.38;100.00;99159.94;4902217;28;21512;-73
2023/01/18 07:39:55;;;;;;;;;;;;;;;-1.41;100.00;99166.97;4923691;28;19942;-73
2023/01/18 07:42:20;;;;;;;;;;;;;;;-1.43;100.00;99163.53;4922559;28;19926;-73
2023/01/18 07:44:45;;;;;;;;;;;;;;;-1.46;100.00;99161.00;4922570;28;20599;-73
2023/01/18 07:47:11;;;;;;;;;;;;;;;-1.51;100.00;99163.72;4918408;28;20294;-75
2023/01/18 07:49:36;;;;;;;;;;;;;;;-1.53;100.00;99175.88;4904521;28;20004;-73
2023/01/18 07:52:02;;;;;;;;;;;;;;;-1.58;100.00;99170.78;4924562;28;19934;-74
2023/01/18 07:54:27;;;;;;;;;;;;;;;-1.60;100.00;99177.75;4926606;28;20457;-74
2023/01/18 07:56:53;;;;;;;;;;;;;;;-1.62;100.00;99179.53;4923685;28;20404;-74
2023/01/18 07:59:18;;;;;;;;;;;;;;;-1.62;100.00;99186.47;4923777;28;20029;-74
2023/01/18 08:01:44;;;;;;;;;;;;;;;-1.64;100.00;99189.94;4926211;28;20417;-74
2023/01/18 08:04:09;;;;;;;;;;;;;;;-1.63;100.00;99190.81;4921388;28;20343;-74
2023/01/18 08:06:35;;;;;;;;;;;;;;;-1.62;100.00;99197.72;4922748;28;19931;-74
2023/01/18 08:09:00;;;;;;;;;;;;;;;-1.61;100.00;99194.22;4904306;29;19934;-73
2023/01/18 08:11:26;;;;;;;;;;;;;;;-1.61;100.00;99212.38;4922855;28;20386;-73
2023/01/18 08:13:51;;;;;;;;;;;;;;;-1.60;100.00;99214.09;4925682;28;20360;-73
2023/01/18 08:16:17;;;;;;;;;;;;;;;-1.59;100.00;99214.97;4925610;28;20017;-73
2023/01/18 08:18:44;;;;;;;;;;;;;;;-1.57;100.00;99213.19;4920493;28;19926;-74
2023/01/18 08:21:12;;;;;;;;;;;;;;;-1.56;100.00;99214.88;4908002;28;20663;-73
2023/01/18 08:23:38;;;;;;;;;;;;;;;-1.56;100.00;99215.75;4927835;28;19930;-74
2023/01/18 08:26:04;;;;;;;;;;;;;;;-1.54;100.00;99213.09;4909719;28;19931;-74
2023/01/18 08:28:29;;;;;;;;;;;;;;;-1.53;100.00;99209.63;4922123;28;19973;-73
2023/01/18 08:31:03;;;;;;;;;;;;;;;-1.54;100.00;99213.97;4927082;28;20160;-73
2023/01/18 08:33:28;;;;;;;;;;;;;;;-1.54;100.00;99223.47;4926867;28;20303;-73
2023/01/18 08:35:54;;;;;;;;;;;;;;;-1.54;100.00;99226.94;4924280;28;19969;-73
2023/01/18 08:38:20;;;;;;;;;;;;;;;-1.51;100.00;99239.00;4926565;28;19935;-73
2023/01/18 08:40:46;;;;;;;;;;;;;;;-1.51;100.00;99228.63;4928203;28;19931;-73
2023/01/18 08:43:11;;;;;;;;;;;;;;;-1.51;100.00;99239.84;4923924;28;20282;-73
2023/01/18 08:45:37;;;;;;;;;;;;;;;-1.51;100.00;99234.66;4925511;28;19976;-73
2023/01/18 08:48:06;;;;;;;;;;;;;;;-1.52;100.00;99243.31;4929075;29;20365;-73
2023/01/18 08:50:32;;;;;;;;;;;;;;;-1.49;100.00;99239.81;4926104;28;19942;-73
2023/01/18 08:53:01;;;;;;;;;;;;;;;-1.46;100.00;99231.97;4908153;28;19937;-73
2023/01/18 08:55:28;;;;;;;;;;;;;;;-1.41;100.00;99234.47;4924320;28;20401;-73
2023/01/18 08:57:54;;;;;;;;;;;;;;;-1.41;100.00;99239.66;4925460;28;19931;-74
2023/01/18 09:00:21;;;;;;;;;;;;;;;-1.39;100.00;99236.16;4925496;28;19980;-73
2023/01/18 09:02:47;;;;;;;;;;;;;;;-1.35;100.00;99233.47;4923901;28;20567;-73
2023/01/18 09:05:13;;;;;;;;;;;;;;;-1.33;100.00;99224.75;4925780;28;19934;-73
2023/01/18 09:07:38;;;;;;;;;;;;;;;-1.31;100.00;99220.38;4906014;29;19922;-73
2023/01/18 09:10:04;;;;;;;;;;;;;;;-1.27;100.00;99221.16;4926050;28;20425;-74
2023/01/18 09:12:30;;;;;;;;;;;;;;;-1.24;100.00;99227.13;4927903;28;20395;-74
2023/01/18 09:14:55;;;;;;;;;;;;;;;-1.19;100.00;99231.38;4923753;28;20418;-73
2023/01/18 09:17:21;;;;;;;;;;;;;;;-1.16;100.00;99231.31;4908773;28;19999;-73
2023/01/18 09:19:46;;;;;;;;;;;;;;;-1.12;100.00;99231.22;4928327;28;19930;-74
2023/01/18 09:22:11;;;;;;;;;;;;;;;-1.07;100.00;99238.91;4919022;28;19930;-74
2023/01/18 09:24:37;;;;;;;;;;;;;;;-1.03;100.00;99245.72;4926948;28;19933;-74
2023/01/18 09:27:03;;;;;;;;;;;;;;;-0.97;100.00;99239.53;4911603;29;19948;-74
2023/01/18 09:29:30;;;;;;;;;;;;;;;-0.92;100.00;99244.63;4927499;28;19938;-74
2023/01/18 09:31:55;;;;;;;;;;;;;;;-0.87;100.00;99250.56;4924675;28;20029;-73
2023/01/18 09:34:20;;;;;;;;;;;;;;;-0.81;100.00;99245.22;4922195;28;19930;-74
2023/01/18 09:36:50;;;;;;;;;;;;;;;-0.76;100.00;99251.16;4906006;29;20157;-74
2023/01/18 09:39:16;;;;;;;;;;;;;;;-0.70;100.00;99247.56;4925048;28;19930;-74
2023/01/18 09:41:47;;;;;;;;;;;;;;;-0.65;100.00;99255.25;4927325;28;20922;-74
2023/01/18 09:44:15;;;;;;;;;;;;;;;-0.62;100.00;99248.22;4925814;28;19937;-74
2023/01/18 09:46:41;;;;;;;;;;;;;;;-0.56;100.00;99252.41;4907997;28;19930;-73
2023/01/18 09:49:06;;;;;;;;;;;;;;;-0.50;100.00;99254.03;4925987;28;19941;-74
2023/01/18 09:51:33;;;;;;;;;;;;;;;-0.44;100.00;99254.69;4924492;28;19937;-74
2023/01/18 09:54:10;;;;;;;;;;;;;;;-0.38;100.00;99248.47;4922859;28;19950;-73
2023/01/18 09:57:02;;;;;;;;;;;;;;;-0.29;100.00;99250.00;4911125;29;19927;-74
2023/01/18 09:59:48;;;;;;;;;;;;;;;-0.20;100.00;99252.38;4886919;29;19937;-73
2023/01/18 10:02:28;;;;;;;;;;;;;;;-0.07;100.00;99257.22;4923837;28;19990;-74
2023/01/18 10:04:56;;;;;;;;;;;;;;;0.02;100.00;99254.38;4924928;28;19946;-74
2023/01/18 10:07:22;;;;;;;;;;;;;;;0.12;100.00;99260.19;4918590;28;20020;-74
2023/01/18 10:09:52;;;;;;;;;;;;;;;0.16;100.00;99268.78;4925298;28;21595;-74
2023/01/18 10:12:36;;;;;;;;;;;;;;;0.18;100.00;99266.97;4909669;29;19933;-74
2023/01/18 10:15:09;;;;;;;;;;;;;;;0.17;100.00;99266.13;4923439;28;20428;-74
2023/01/18 10:17:41;;;;;;;;;;;;;;;0.18;100.00;99272.16;4907796;29;19940;-74
2023/01/18 10:20:14;;;;;;;;;;;;;;;0.24;100.00;99261.59;4925241;28;19938;-74
2023/01/18 10:22:44;;;;;;;;;;;;;;;0.34;100.00;99264.78;4907682;29;19973;-74
2023/01/18 10:25:28;;;;;;;;;;;;;;;0.43;100.00;99268.88;4924360;28;20010;-74
2023/01/18 10:27:57;;;;;;;;;;;;;;;0.55;100.00;99271.13;4926009;28;19927;-74
2023/01/18 10:30:27;;;;;;;;;;;;;;;0.66;100.00;99265.63;4926782;28;20424;-74
2023/01/18 10:32:56;;;;;;;;;;;;;;;0.74;100.00;99267.97;4910570;28;19930;-74
2023/01/18 10:35:29;;;;;;;;;;;;;;;0.82;100.00;99266.00;4908291;28;19931;-74
2023/01/18 10:38:02;;;;;;;;;;;;;;;0.91;100.00;99257.91;4902861;29;22371;-74
2023/01/18 10:40:27;;;;;;;;;;;;;;;0.99;100.00;99262.00;4921170;28;20357;-74
2023/01/18 10:42:55;;;;;;;;;;;;;;;1.04;100.00;99268.78;4906080;28;19938;-76
2023/01/18 10:45:21;;;;;;;;;;;;;;;1.13;100.00;99272.84;4907436;29;19927;-76
2023/01/18 10:47:47;;;;;;;;;;;;;;;1.20;100.00;99263.94;4924714;28;19930;-76
2023/01/18 10:50:19;;;;;;;;;;;;;;;1.25;100.00;99255.97;4908579;29;19941;-76
2023/01/18 10:52:44;;;;;;;;;;;;;;;1.30;100.00;99263.66;4907902;28;19997;-76
2023/01/18 10:55:16;;;;;;;;;;;;;;;1.33;100.00;99260.94;4923180;28;20379;-75
2023/01/18 10:57:49;;;;;;;;;;;;;;;1.37;100.00;99259.09;4921220;28;20198;-75
2023/01/18 11:00:33;;;;;;;;;;;;;;;1.40;100.00;99253.75;4905662;29;19963;-75
2023/01/18 11:02:59;;;;;;;;;;;;;;;1.44;100.00;99251.00;4922782;28;20587;-75
2023/01/18 11:05:36;;;;;;;;;;;;;;;1.46;100.00;99248.34;4924529;29;20124;-75
2023/01/18 11:08:21;;;;;;;;;;;;;;;1.52;100.00;99252.50;4902772;28;19938;-74
2023/01/18 11:11:00;;;;;;;;;;;;;;;1.57;100.00;99253.22;4927044;28;19938;-75
2023/01/18 11:13:29;;;;;;;;;;;;;;;1.59;100.00;99259.22;4923955;28;20526;-75
2023/01/18 11:16:04;;;;;;;;;;;;;;;1.61;100.00;99260.03;4925376;28;19989;-75
2023/01/18 11:18:30;;;;;;;;;;;;;;;1.60;100.00;99260.94;4906463;29;19927;-76
2023/01/18 11:20:56;;;;;;;;;;;;;;;1.63;100.00;99260.81;4922965;28;19965;-74
2023/01/18 11:23:24;;;;;;;;;;;;;;;1.69;100.00;99258.00;4926497;28;20131;-75
2023/01/18 11:25:55;;;;;;;;;;;;;;;1.83;100.00;99264.50;4924651;28;20564;-75
2023/01/18 11:28:21;;;;;;;;;;;;;;;1.98;100.00;99258.78;4927196;29;19927;-75
2023/01/18 11:30:48;;;;;;;;;;;;;;;2.12;100.00;99268.69;4927080;28;20396;-75
2023/01/18 11:33:16;;;;;;;;;;;;;;;2.23;100.00;99270.09;4909404;28;20090;-75
2023/01/18 11:35:41;;;;;;;;;;;;;;;2.27;100.00;99263.84;4924309;28;19930;-75
2023/01/18 11:38:14;;;;;;;;;;;;;;;2.29;100.00;99254.19;4922509;28;20287;-75
2023/01/18 11:40:39;;;;;;;;;;;;;;;2.34;100.00;99256.63;4908995;29;19930;-75
2023/01/18 11:43:08;;;;;;;;;;;;;;;2.36;100.00;99247.84;4922811;28;20147;-76
2023/01/18 11:45:35;;;;;;;;;;;;;;;2.42;100.00;99241.53;4924830;28;19941;-74
2023/01/18 11:48:16;;;;;;;;;;;;;;;2.45;100.00;99254.47;4927440;28;20144;-73
2023/01/18 11:50:44;;;;;;;;;;;;;;;2.48;100.00;99243.91;4924905;29;19974;-73
2023/01/18 11:53:15;;;;;;;;;;;;;;;2.49;100.00;99232.53;4924538;28;19961;-73
2023/01/18 11:55:46;;;;;;;;;;;;;;;2.48;100.00;99228.25;4924884;28;19981;-74
2023/01/18 11:58:41;;;;;;;;;;;;;;;2.52;100.00;99235.06;4926444;28;19930;-74
2023/01/18 12:01:25;;;;;;;;;;;;;;;2.50;100.00;99231.63;4915975;28;20009;-74
2023/01/18 12:03:52;;;;;;;;;;;;;;;2.49;100.00;99236.91;4926934;28;20379;-74
2023/01/18 12:06:27;;;;;;;;;;;;;;;2.47;100.00;99234.38;4923311;28;20033;-75
2023/01/18 12:08:55;;;;;;;;;;;;;;;2.48;100.00;99230.84;4911473;29;20575;-75
2023/01/18 12:11:27;;;;;;;;;;;;;;;2.49;100.00;99234.28;4910212;28;19923;-75
2023/01/18 12:13:58;;;;;;;;;;;;;;;2.51;100.00;99232.50;4926179;28;19926;-75
2023/01/18 12:16:42;;;;;;;;;;;;;;;2.54;100.00;99234.97;4928231;28;19930;-75
2023/01/18 12:19:27;;;;;;;;;;;;;;;2.55;100.00;99229.69;4911524;29;19935;-74
2023/01/18 12:22:13;;;;;;;;;;;;;;;2.60;100.00;99232.13;4925062;28;19926;-75
2023/01/18 12:25:01;;;;;;;;;;;;;;;2.63;100.00;99236.41;4920728;28;20043;-75
2023/01/18 12:27:27;;;;;;;;;;;;;;;2.64;100.00;99233.72;4902221;28;19930;-75
2023/01/18 12:29:52;;;;;;;;;;;;;;;2.65;100.00;99224.13;4925754;28;20342;-74
2023/01/18 12:32:21;;;;;;;;;;;;;;;2.67;100.00;99238.81;4927167;28;19938;-74
2023/01/18 12:34:49;;;;;;;;;;;;;;;2.67;100.00;99236.22;4927557;28;19934;-74
2023/01/18 12:37:34;;;;;;;;;;;;;;;2.69;100.00;99251.84;4926002;28;19966;-74
2023/01/18 12:39:59;;;;;;;;;;;;;;;2.69;100.00;99236.16;4924093;28;20413;-74
2023/01/18 12:42:24;;;;;;;;;;;;;;;2.69;100.00;99238.78;4928482;28;19937;-74
2023/01/18 12:45:02;;;;;;;;;;;;;;;2.68;100.00;99224.00;4926842;29;19931;-74
2023/01/18 12:47:34;;;;;;;;;;;;;;;2.66;100.00;99231.91;4927285;28;19970;-74
2023/01/18 12:50:01;;;;;;;;;;;;;;;2.66;100.00;99225.84;4884640;28;20041;-74
2023/01/18 12:52:27;;;;;;;;;;;;;;;2.67;100.00;99212.69;4924333;28;19930;-74
2023/01/18 12:54:54;;;;;;;;;;;;;;;2.68;100.00;99229.25;4928780;28;19939;-74
2023/01/18 12:57:20;;;;;;;;;;;;;;;2.66;100.00;99221.44;4923580;28;19934;-74
2023/01/18 12:59:58;;;;;;;;;;;;;;;2.66;100.00;99224.06;4908436;29;20220;-73
2023/01/18 13:02:23;;;;;;;;;;;;;;;2.66;100.00;99224.06;4927657;28;19965;-73
2023/01/18 13:05:01;;;;;;;;;;;;;;;2.64;100.00;99211.97;4928887;28;20073;-73
2023/01/18 13:07:41;;;;;;;;;;;;;;;2.61;100.00;99212.09;4925749;28;19926;-73
2023/01/18 13:10:11;;;;;;;;;;;;;;;2.60;100.00;99215.63;4910406;29;20403;-74
2023/01/18 13:12:37;;;;;;;;;;;;;;;2.57;100.00;99212.19;4924545;28;21162;-74
2023/01/18 13:15:06;;;;;;;;;;;;;;;2.55;100.00;99213.16;4924559;28;19937;-74
2023/01/18 13:17:36;;;;;;;;;;;;;;;2.53;100.00;99221.09;4925702;28;20088;-74
2023/01/18 13:20:03;;;;;;;;;;;;;;;2.51;100.00;99222.88;4924580;28;20376;-74